Time;durP1;ratioP1;P1;durP2;ratioP2;P2;SDS_P1;SDS_P2;PMS_P1;PMS_P2;Temp;Humidity;BMP_temperature;BMP_pressure;BME280_temperature;BME280_humidity;BME280_pressure;Samples;Min_cycle;Max_cycle;Signal;HPM_P1;HPM_P2
2022/06/11 00:01:45;;;;;;;18.35;16.55;;;16.40;99.90;;;;;;5075586;28;20217;-78
2022/06/11 00:04:15;;;;;;;18.13;14.85;;;16.40;99.90;;;;;;5051360;28;20122;-77
2022/06/11 00:06:45;;;;;;;18.85;14.93;;;16.40;99.90;;;;;;5024774;28;20052;-77
2022/06/11 00:09:13;;;;;;;15.32;13.73;;;16.30;99.90;;;;;;5039576;28;20492;-77
2022/06/11 00:11:41;;;;;;;18.65;13.48;;;16.30;99.90;;;;;;5043767;28;20044;-77
2022/06/11 00:14:08;;;;;;;20.00;12.18;;;16.30;99.90;;;;;;5025491;28;20082;-78
2022/06/11 00:16:34;;;;;;;14.18;12.30;;;16.30;99.90;;;;;;5060445;28;20127;-77
2022/06/11 00:19:02;;;;;;;13.38;10.90;;;16.20;99.90;;;;;;5052891;28;20044;-76
2022/06/11 00:21:32;;;;;;;12.73;11.27;;;16.30;99.90;;;;;;5058161;28;20122;-76
2022/06/11 00:23:59;;;;;;;12.85;10.65;;;16.30;99.90;;;;;;5058262;28;20040;-77
2022/06/11 00:26:25;;;;;;;13.65;11.27;;;16.30;99.90;;;;;;5042686;28;20041;-78
2022/06/11 00:28:52;;;;;;;14.52;10.90;;;16.20;99.90;;;;;;5043598;28;20249;-77
2022/06/11 00:31:18;;;;;;;13.00;11.00;;;16.20;99.90;;;;;;5056871;28;20127;-77
2022/06/11 00:34:15;;;;;;;16.48;11.68;;;16.10;99.90;;;;;;5042310;28;20047;-76
2022/06/11 00:36:48;;;;;;;17.92;12.68;;;16.10;99.90;;;;;;5061500;28;20048;-77
2022/06/11 00:39:20;;;;;;;12.80;11.10;;;15.90;99.90;;;;;;5057116;28;20036;-77
2022/06/11 00:41:49;;;;;;;13.45;12.10;;;15.90;99.90;;;;;;5044098;28;20040;-77
2022/06/11 00:44:19;;;;;;;15.50;12.98;;;15.90;99.90;;;;;;5018237;28;20049;-77
2022/06/11 00:46:57;;;;;;;17.00;13.30;;;15.80;99.90;;;;;;5021789;28;20051;-76
2022/06/11 00:49:23;;;;;;;16.08;13.52;;;15.80;99.90;;;;;;5041414;28;20056;-77
2022/06/11 00:52:04;;;;;;;16.35;13.27;;;15.70;99.90;;;;;;5061468;28;20051;-76
2022/06/11 00:54:32;;;;;;;17.83;12.80;;;15.70;99.90;;;;;;5058796;28;20082;-77
2022/06/11 00:57:01;;;;;;;15.52;12.88;;;15.50;99.90;;;;;;5076759;28;20306;-77
2022/06/11 00:59:40;;;;;;;14.52;12.10;;;15.40;99.90;;;;;;5023355;28;20102;-77
2022/06/11 01:02:06;;;;;;;16.17;12.63;;;15.30;99.90;;;;;;5040891;28;20095;-77
2022/06/11 01:04:48;;;;;;;15.85;13.75;;;15.30;99.90;;;;;;5010437;28;20239;-77
2022/06/11 01:07:27;;;;;;;15.98;13.85;;;15.20;99.90;;;;;;5037673;28;20079;-77
2022/06/11 01:10:10;;;;;;;14.82;13.20;;;15.30;99.90;;;;;;5035257;28;20047;-78
2022/06/11 01:13:04;;;;;;;15.10;13.52;;;15.30;99.90;;;;;;5072212;28;20056;-77
2022/06/11 01:15:42;;;;;;;20.92;13.70;;;15.40;99.90;;;;;;5052914;28;20041;-77
2022/06/11 01:18:18;;;;;;;16.55;14.82;;;15.40;99.90;;;;;;5063004;28;20044;-77
2022/06/11 01:20:56;;;;;;;16.08;13.68;;;15.40;99.90;;;;;;5061754;28;20384;-77
2022/06/11 01:23:50;;;;;;;17.17;13.63;;;15.40;99.90;;;;;;5045797;28;20052;-77
2022/06/11 01:27:04;;;;;;;14.23;12.73;;;15.40;99.90;;;;;;5078571;28;20080;-78
2022/06/11 01:29:48;;;;;;;16.20;12.68;;;15.40;99.90;;;;;;5009026;28;20084;-77
2022/06/11 01:32:41;;;;;;;14.32;12.82;;;15.30;99.90;;;;;;5045069;28;20040;-76
2022/06/11 01:35:16;;;;;;;17.70;13.00;;;15.30;99.90;;;;;;5053745;28;20056;-76
2022/06/11 01:37:53;;;;;;;15.15;13.55;;;15.10;99.90;;;;;;5034131;28;20055;-76
2022/06/11 01:40:47;;;;;;;13.95;12.55;;;15.10;99.90;;;;;;5040686;28;20346;-76
2022/06/11 01:43:25;;;;;;;14.95;12.52;;;15.00;99.90;;;;;;5055815;28;20044;-76
2022/06/11 01:45:52;;;;;;;17.00;14.13;;;15.00;99.90;;;;;;5057237;28;20689;-76
2022/06/11 01:48:22;;;;;;;16.20;13.27;;;14.90;99.90;;;;;;5050439;28;20040;-76
2022/06/11 01:51:06;;;;;;;18.17;14.10;;;14.90;99.90;;;;;;5049120;28;20048;-76
2022/06/11 01:54:11;;;;;;;17.33;15.52;;;14.80;99.90;;;;;;5038787;28;20302;-76
2022/06/11 01:56:43;;;;;;;17.10;14.50;;;14.80;99.90;;;;;;5012681;28;20843;-75
2022/06/11 01:59:39;;;;;;;16.42;14.80;;;14.70;99.90;;;;;;5101914;27;20105;-76
2022/06/11 02:02:41;;;;;;;20.58;15.90;;;14.70;99.90;;;;;;5060797;28;20051;-76
2022/06/11 02:05:10;;;;;;;;;;;14.70;99.90;;;;;;5056201;28;20131;-76
2022/06/11 02:08:04;;;;;;;20.08;16.55;;;14.70;99.90;;;;;;5052923;28;19920;-77
2022/06/11 02:10:46;;;;;;;21.33;16.17;;;14.70;99.90;;;;;;5075707;28;20126;-77
2022/06/11 02:13:34;;;;;;;19.45;15.95;;;14.80;99.90;;;;;;5041396;28;20035;-77
2022/06/11 02:16:27;;;;;;;19.37;15.23;;;14.80;99.90;;;;;;5081198;28;20376;-77
2022/06/11 02:18:55;;;;;;;17.23;15.43;;;14.80;99.90;;;;;;5064585;28;20056;-77
2022/06/11 02:21:26;;;;;;;17.08;14.75;;;14.80;99.90;;;;;;5045398;28;20380;-77
2022/06/11 02:23:58;;;;;;;18.77;16.38;;;14.90;99.90;;;;;;5048113;28;20055;-77
2022/06/11 02:26:31;;;;;;;17.20;15.27;;;14.90;99.90;;;;;;5055225;28;20508;-77
2022/06/11 02:28:59;;;;;;;15.18;13.57;;;15.00;99.90;;;;;;5053529;28;20667;-77
2022/06/11 02:31:30;;;;;;;19.15;14.88;;;15.00;99.90;;;;;;5046354;28;20122;-77
2022/06/11 02:34:00;;;;;;;17.48;14.55;;;15.00;99.90;;;;;;5060136;28;20047;-77
2022/06/11 02:36:29;;;;;;;17.85;14.02;;;15.00;99.90;;;;;;5049046;28;20128;-77
2022/06/11 02:38:59;;;;;;;16.70;13.45;;;15.00;99.90;;;;;;5086872;28;20079;-77
2022/06/11 02:41:33;;;;;;;17.52;13.63;;;14.90;99.90;;;;;;5045015;28;20058;-77
2022/06/11 02:43:59;;;;;;;19.00;13.27;;;14.80;99.90;;;;;;5050643;28;20142;-78
2022/06/11 02:46:41;;;;;;;15.45;12.80;;;14.80;99.90;;;;;;5041812;28;20048;-77
2022/06/11 02:49:13;;;;;;;15.15;13.65;;;14.70;99.90;;;;;;5072929;28;20131;-77
2022/06/11 02:51:43;;;;;;;16.73;13.38;;;14.70;99.90;;;;;;5043872;28;20064;-77
2022/06/11 02:54:09;;;;;;;17.25;14.65;;;14.70;99.90;;;;;;5058132;28;20045;-77
2022/06/11 02:56:36;;;;;;;18.30;13.90;;;14.60;99.90;;;;;;5047858;28;20834;-77
2022/06/11 02:59:02;;;;;;;16.08;13.52;;;14.60;99.90;;;;;;5046551;28;20408;-77
2022/06/11 03:01:28;;;;;;;16.48;14.32;;;14.60;99.90;;;;;;5045354;28;20207;-77
2022/06/11 03:03:55;;;;;;;15.60;14.00;;;14.50;99.90;;;;;;5047496;28;20754;-77
2022/06/11 03:06:23;;;;;;;20.35;14.82;;;14.50;99.90;;;;;;5042915;28;20117;-77
2022/06/11 03:08:49;;;;;;;17.20;14.15;;;14.50;99.90;;;;;;5042808;28;20048;-77
2022/06/11 03:11:16;;;;;;;17.63;15.80;;;14.40;99.90;;;;;;5043180;28;20048;-77
2022/06/11 03:13:42;;;;;;;17.85;14.75;;;14.50;99.90;;;;;;5046737;28;20062;-77
2022/06/11 03:16:12;;;;;;;19.83;17.40;;;14.40;99.90;;;;;;5039055;28;20139;-77
2022/06/11 03:18:38;;;;;;;20.60;18.45;;;14.40;99.90;;;;;;5043630;28;20069;-77
2022/06/11 03:21:05;;;;;;;22.52;18.95;;;14.40;99.90;;;;;;5074529;28;20039;-77
2022/06/11 03:23:31;;;;;;;25.58;20.60;;;14.40;99.90;;;;;;5052257;28;20391;-76
2022/06/11 03:25:59;;;;;;;26.60;20.65;;;14.30;99.90;;;;;;5073220;28;20502;-77
2022/06/11 03:28:27;;;;;;;22.92;20.08;;;14.30;99.90;;;;;;5039762;28;20067;-76
2022/06/11 03:30:53;;;;;;;26.05;21.85;;;14.30;99.90;;;;;;5040144;28;20055;-77
2022/06/11 03:33:20;;;;;;;25.60;20.27;;;14.30;99.90;;;;;;5044871;28;20142;-77
2022/06/11 03:35:50;;;;;;;24.10;19.55;;;14.30;99.90;;;;;;5057477;28;20125;-77
2022/06/11 03:38:17;;;;;;;25.92;19.90;;;14.30;99.90;;;;;;5040925;28;20715;-77
2022/06/11 03:40:44;;;;;;;22.95;18.65;;;14.40;99.90;;;;;;5054301;28;20071;-77
2022/06/11 03:43:10;;;;;;;20.10;18.17;;;14.40;99.90;;;;;;5029112;28;20055;-76
2022/06/11 03:45:37;;;;;;;20.05;15.73;;;14.50;99.90;;;;;;5047373;28;20143;-77
2022/06/11 03:48:04;;;;;;;18.55;14.43;;;14.50;99.90;;;;;;5061459;28;20548;-77
2022/06/11 03:50:35;;;;;;;19.23;13.98;;;14.60;99.90;;;;;;5037323;28;20138;-77
2022/06/11 03:53:03;;;;;;;20.05;13.35;;;14.60;99.90;;;;;;5086398;27;20070;-76
2022/06/11 03:55:29;;;;;;;21.92;13.10;;;14.70;99.90;;;;;;5063492;28;20066;-77
2022/06/11 03:57:56;;;;;;;17.38;12.30;;;14.80;99.90;;;;;;5043928;28;20539;-77
2022/06/11 04:03:11;;;;;;;17.63;11.55;;;14.80;99.90;;;;;;5083734;28;20384;-77
2022/06/11 04:05:39;;;;;;;16.45;10.13;;;14.80;99.90;;;;;;5025710;28;20083;-77
2022/06/11 04:08:06;;;;;;;16.42;10.27;;;14.80;99.90;;;;;;5046524;28;20048;-77
2022/06/11 04:10:32;;;;;;;16.65;9.55;;;14.80;99.90;;;;;;5039733;28;20059;-77
2022/06/11 04:12:58;;;;;;;18.10;9.10;;;14.80;99.90;;;;;;5034120;28;20043;-77
2022/06/11 04:15:25;;;;;;;16.23;7.97;;;14.80;99.90;;;;;;5060110;28;20055;-77
2022/06/11 04:17:52;;;;;;;16.10;6.68;;;14.80;99.90;;;;;;5053275;28;20052;-77
2022/06/11 04:20:19;;;;;;;16.83;8.18;;;14.80;99.90;;;;;;5018701;28;20082;-76
2022/06/11 04:22:45;;;;;;;12.18;6.93;;;14.80;99.90;;;;;;5032627;28;20126;-75
2022/06/11 04:25:17;;;;;;;15.48;7.07;;;14.90;99.90;;;;;;5059115;28;20115;-75
2022/06/11 04:27:46;;;;;;;20.92;7.00;;;14.90;99.90;;;;;;5044075;28;20071;-76
2022/06/11 04:30:14;;;;;;;12.98;6.20;;;14.90;99.90;;;;;;5054562;28;20105;-77
2022/06/11 04:32:40;;;;;;;14.00;5.82;;;14.90;99.90;;;;;;5062462;28;20040;-77
2022/06/11 04:35:07;;;;;;;12.70;5.45;;;14.90;99.90;;;;;;5038475;28;20877;-77
2022/06/11 04:37:33;;;;;;;10.15;4.93;;;14.90;99.90;;;;;;5029690;28;20044;-77
2022/06/11 04:40:03;;;;;;;12.65;5.43;;;15.00;99.90;;;;;;5042316;28;20036;-77
2022/06/11 04:42:31;;;;;;;16.58;5.53;;;15.00;99.90;;;;;;5057195;28;20055;-77
2022/06/11 04:44:57;;;;;;;14.68;4.68;;;15.00;99.90;;;;;;5067319;28;20055;-77
2022/06/11 04:47:26;;;;;;;16.75;5.63;;;15.10;99.90;;;;;;5038104;28;20052;-77
2022/06/11 04:49:54;;;;;;;14.93;5.00;;;15.10;99.90;;;;;;5038496;28;20051;-77
2022/06/11 04:52:21;;;;;;;16.95;4.82;;;15.20;99.90;;;;;;5045326;28;20545;-76
2022/06/11 04:54:47;;;;;;;14.05;4.53;;;15.20;99.90;;;;;;5060545;28;20126;-77
2022/06/11 04:57:13;;;;;;;16.20;4.25;;;15.20;99.90;;;;;;5056020;28;20058;-76
2022/06/11 04:59:40;;;;;;;15.57;4.82;;;15.30;99.90;;;;;;5027365;28;20050;-76
2022/06/11 05:02:06;;;;;;;14.93;5.32;;;15.40;99.90;;;;;;5065708;28;20136;-76
2022/06/11 05:04:33;;;;;;;11.80;4.18;;;15.50;99.90;;;;;;5039372;28;20054;-76
2022/06/11 05:07:01;;;;;;;15.45;4.50;;;15.50;99.90;;;;;;5045954;28;20050;-77
2022/06/11 05:09:28;;;;;;;13.82;4.80;;;15.80;99.90;;;;;;5039993;28;20040;-77
2022/06/11 05:11:55;;;;;;;12.10;4.68;;;16.10;99.90;;;;;;5062232;28;20071;-76
2022/06/11 05:14:22;;;;;;;14.52;4.70;;;16.30;99.90;;;;;;5040431;28;20043;-77
2022/06/11 05:16:49;;;;;;;13.45;4.13;;;16.30;99.90;;;;;;5062761;28;20057;-77
2022/06/11 05:19:18;;;;;;;12.75;4.13;;;16.50;99.90;;;;;;5052053;28;20033;-78
2022/06/11 05:21:46;;;;;;;16.67;4.90;;;16.60;99.90;;;;;;5046468;28;20039;-77
2022/06/11 05:24:12;;;;;;;12.70;4.18;;;16.60;99.90;;;;;;5048785;28;20043;-77
2022/06/11 05:26:45;;;;;;;15.60;4.95;;;16.80;99.90;;;;;;5048115;28;20150;-78
2022/06/11 05:29:20;;;;;;;16.42;4.32;;;16.90;99.90;;;;;;5063541;28;20142;-76
2022/06/11 05:31:46;;;;;;;9.98;3.53;;;16.90;99.90;;;;;;5065081;28;20112;-77
2022/06/11 05:34:13;;;;;;;13.00;4.25;;;16.90;99.90;;;;;;5057398;28;20119;-77
2022/06/11 05:36:40;;;;;;;15.48;3.90;;;17.10;99.90;;;;;;5032150;28;20044;-76
2022/06/11 05:39:06;;;;;;;12.95;4.38;;;17.20;99.90;;;;;;5077083;28;20039;-76
2022/06/11 05:41:32;;;;;;;15.95;4.35;;;17.40;99.90;;;;;;5059356;28;20046;-76
2022/06/11 05:43:58;;;;;;;16.40;5.15;;;17.40;99.90;;;;;;5045134;28;20051;-76
2022/06/11 05:46:26;;;;;;;14.85;4.82;;;17.40;99.90;;;;;;5065779;28;20044;-76
2022/06/11 05:48:58;;;;;;;14.90;4.93;;;17.50;99.90;;;;;;5027530;28;20044;-77
2022/06/11 05:51:35;;;;;;;18.15;4.60;;;17.60;99.90;;;;;;5059552;28;20533;-77
2022/06/11 05:54:08;;;;;;;15.45;5.57;;;17.80;99.90;;;;;;5064109;28;20048;-77
2022/06/11 05:56:38;;;;;;;13.18;4.15;;;17.70;99.90;;;;;;5076862;28;20072;-77
2022/06/11 05:59:10;;;;;;;16.38;4.85;;;17.80;99.90;;;;;;5058067;28;20055;-76
2022/06/11 06:01:40;;;;;;;17.60;4.80;;;17.90;99.90;;;;;;5075821;28;20045;-76
2022/06/11 06:04:09;;;;;;;13.55;4.22;;;18.00;99.90;;;;;;5051593;28;21435;-76
2022/06/11 06:06:35;;;;;;;15.02;4.65;;;18.10;99.90;;;;;;5046918;28;20048;-76
2022/06/11 06:09:02;;;;;;;14.65;4.40;;;18.10;99.90;;;;;;5049561;28;20079;-76
2022/06/11 06:11:29;;;;;;;17.17;5.32;;;18.10;99.90;;;;;;5030128;28;20138;-76
2022/06/11 06:13:56;;;;;;;12.93;5.13;;;18.10;99.90;;;;;;5052757;28;20050;-76
2022/06/11 06:16:25;;;;;;;14.32;4.68;;;18.20;99.90;;;;;;5026287;28;20407;-76
2022/06/11 06:18:52;;;;;;;13.20;4.50;;;18.40;99.90;;;;;;5064453;28;20139;-76
2022/06/11 06:21:22;;;;;;;14.68;4.50;;;18.50;99.90;;;;;;5049317;28;20544;-76
2022/06/11 06:23:48;;;;;;;13.85;4.47;;;18.60;99.90;;;;;;5069638;28;20403;-77
2022/06/11 06:26:14;;;;;;;13.57;4.63;;;18.60;99.90;;;;;;5025073;28;20051;-77
2022/06/11 06:28:41;;;;;;;12.23;4.45;;;18.70;99.90;;;;;;5049407;28;20063;-76
2022/06/11 06:31:09;;;;;;;15.43;4.45;;;18.70;99.90;;;;;;5052480;28;20502;-76
2022/06/11 06:33:36;;;;;;;18.15;5.45;;;18.60;99.90;;;;;;5048158;28;20386;-77
2022/06/11 06:36:03;;;;;;;13.07;3.95;;;18.70;99.90;;;;;;5037211;28;20408;-76
2022/06/11 06:38:29;;;;;;;17.25;5.05;;;18.80;99.90;;;;;;5065816;28;20127;-74
2022/06/11 06:40:56;;;;;;;15.93;4.50;;;18.80;99.90;;;;;;5055869;28;20050;-76
2022/06/11 06:43:22;;;;;;;15.95;5.00;;;19.00;99.90;;;;;;5041753;28;20048;-78
2022/06/11 06:45:48;;;;;;;15.20;5.45;;;19.20;99.90;;;;;;5056325;28;20072;-76
2022/06/11 06:48:15;;;;;;;18.17;4.32;;;18.90;99.90;;;;;;5059549;28;20047;-76
2022/06/11 06:50:41;;;;;;;15.18;4.80;;;19.10;99.90;;;;;;5026728;28;20040;-76
2022/06/11 06:53:07;;;;;;;15.32;4.93;;;19.20;99.90;;;;;;5035484;28;20048;-76
2022/06/11 06:55:36;;;;;;;16.95;5.50;;;19.10;99.90;;;;;;5040009;28;20877;-76
2022/06/11 06:58:03;;;;;;;18.33;4.00;;;19.20;99.90;;;;;;5047142;28;20415;-75
2022/06/11 07:00:29;;;;;;;15.25;4.72;;;19.20;99.90;;;;;;5056286;28;20163;-75
2022/06/11 07:02:55;;;;;;;19.15;5.10;;;19.30;99.90;;;;;;5029101;28;20123;-75
2022/06/11 07:05:22;;;;;;;22.10;5.57;;;19.50;99.90;;;;;;5060802;28;20090;-75
2022/06/11 07:07:49;;;;;;;17.05;5.20;;;19.50;99.90;;;;;;5025161;28;20607;-75
2022/06/11 07:10:17;;;;;;;18.70;4.80;;;19.50;99.90;;;;;;5072068;28;20046;-76
2022/06/11 07:12:47;;;;;;;18.83;4.88;;;19.80;99.90;;;;;;5036617;28;20048;-76
2022/06/11 07:15:14;;;;;;;18.38;4.88;;;19.90;99.90;;;;;;5023997;28;20384;-76
2022/06/11 07:17:52;;;;;;;15.27;4.53;;;19.80;99.90;;;;;;5038145;28;20040;-72
2022/06/11 07:20:23;;;;;;;16.77;4.97;;;20.00;99.90;;;;;;5039845;28;20502;-76
2022/06/11 07:22:58;;;;;;;19.20;6.22;;;20.40;99.90;;;;;;5054396;28;20182;-76
2022/06/11 07:25:25;;;;;;;18.05;5.10;;;20.40;99.90;;;;;;5073187;28;20040;-75
2022/06/11 07:28:00;;;;;;;20.95;5.15;;;20.30;99.90;;;;;;5036595;28;20048;-75
2022/06/11 07:30:28;;;;;;;19.40;5.20;;;20.30;99.90;;;;;;5054676;28;20048;-77
2022/06/11 07:33:05;;;;;;;16.00;5.40;;;20.30;99.90;;;;;;5026179;28;20142;-75
2022/06/11 07:35:32;;;;;;;17.67;5.72;;;20.20;99.90;;;;;;5072697;28;20087;-75
2022/06/11 07:37:58;;;;;;;20.45;5.95;;;20.20;99.90;;;;;;5071380;28;20036;-75
2022/06/11 07:40:24;;;;;;;16.77;4.70;;;20.30;99.90;;;;;;5023154;28;20050;-75
2022/06/11 07:42:50;;;;;;;18.13;5.22;;;20.70;99.90;;;;;;5056919;28;20086;-75
2022/06/11 07:45:16;;;;;;;19.00;5.18;;;21.00;99.90;;;;;;5042796;28;20036;-75
2022/06/11 07:47:54;;;;;;;20.60;5.55;;;21.00;99.90;;;;;;5039079;28;20583;-75
2022/06/11 07:50:43;;;;;;;19.27;4.93;;;21.20;99.90;;;;;;5057794;28;20046;-76
2022/06/11 07:53:10;;;;;;;20.80;5.05;;;21.30;99.90;;;;;;5050775;28;20036;-77
2022/06/11 07:55:38;;;;;;;20.27;4.50;;;21.30;99.90;;;;;;5026877;28;20048;-77
2022/06/11 07:58:06;;;;;;;17.48;4.78;;;21.60;99.90;;;;;;5028612;28;20607;-77
2022/06/11 08:00:41;;;;;;;19.30;4.93;;;21.60;99.90;;;;;;5027770;28;20075;-78
2022/06/11 08:03:07;;;;;;;21.73;5.47;;;21.60;99.90;;;;;;5061384;28;20044;-77
2022/06/11 08:05:36;;;;;;;15.35;4.82;;;21.60;99.90;;;;;;5049333;28;20056;-78
2022/06/11 08:08:04;;;;;;;24.58;12.75;;;21.40;99.90;;;;;;5063139;28;20131;-78
2022/06/11 08:10:34;;;;;;;21.58;5.55;;;21.60;99.90;;;;;;5071604;28;20053;-79
2022/06/11 08:13:07;;;;;;;16.63;4.88;;;21.90;99.90;;;;;;5048253;28;20043;-80
2022/06/11 08:15:33;;;;;;;20.60;5.50;;;22.20;99.90;;;;;;5059142;28;20077;-80
2022/06/11 08:18:03;;;;;;;17.08;5.53;;;22.40;99.90;;;;;;5068382;28;20045;-84
2022/06/11 08:20:32;;;;;;;21.75;5.78;;;22.30;99.90;;;;;;5037535;28;20114;-78
2022/06/11 08:22:58;;;;;;;26.50;6.13;;;22.20;99.90;;;;;;5057859;28;20043;-80
2022/06/11 08:25:28;;;;;;;26.33;15.52;;;22.50;99.90;;;;;;5037900;28;20040;-77
2022/06/11 08:27:54;;;;;;;21.23;7.13;;;22.40;99.90;;;;;;5041658;28;20174;-77
2022/06/11 08:30:23;;;;;;;19.30;7.50;;;22.40;99.90;;;;;;5032162;28;20041;-76
2022/06/11 08:32:50;;;;;;;18.73;6.57;;;22.50;99.90;;;;;;5051620;28;20131;-77
2022/06/11 08:35:21;;;;;;;18.55;6.40;;;22.70;99.90;;;;;;5037505;28;20059;-77
2022/06/11 08:37:48;;;;;;;19.02;5.25;;;22.20;99.90;;;;;;5039919;28;20073;-76
2022/06/11 08:40:27;;;;;;;16.58;4.50;;;22.40;99.90;;;;;;5025361;28;20570;-76
2022/06/11 08:43:00;;;;;;;18.25;4.80;;;22.40;99.90;;;;;;5044698;28;20047;-75
2022/06/11 08:45:35;;;;;;;16.80;4.57;;;22.70;99.90;;;;;;5039480;28;20051;-76
2022/06/11 08:48:11;;;;;;;15.70;4.82;;;22.80;99.90;;;;;;5041860;28;20048;-79
2022/06/11 08:50:42;;;;;;;24.15;13.30;;;23.10;99.90;;;;;;5056737;28;20052;-74
2022/06/11 08:53:08;;;;;;;18.35;7.50;;;23.00;99.90;;;;;;5051865;28;20044;-77
2022/06/11 08:55:36;;;;;;;17.33;6.88;;;22.90;99.90;;;;;;5043691;28;20081;-76
2022/06/11 08:58:03;;;;;;;21.48;4.82;;;23.30;99.90;;;;;;5058762;28;20527;-76
2022/06/11 09:01:04;;;;;;;16.65;4.32;;;23.30;99.90;;;;;;5069355;28;20044;-76
2022/06/11 09:04:03;;;;;;;20.23;5.68;;;23.70;99.90;;;;;;5032660;28;20357;-77
2022/06/11 09:06:56;;;;;;;18.20;4.78;;;23.50;99.90;;;;;;5046817;28;20055;-76
2022/06/11 09:09:36;;;;;;;19.00;4.95;;;23.50;99.90;;;;;;5050641;28;20055;-74
2022/06/11 09:12:33;;;;;;;16.52;4.78;;;24.20;99.90;;;;;;5067287;28;20052;-74
2022/06/11 09:15:11;;;;;;;15.05;4.55;;;24.20;99.90;;;;;;5043677;28;20049;-77
2022/06/11 09:17:43;;;;;;;16.92;4.22;;;23.90;99.90;;;;;;5057754;28;20105;-74
2022/06/11 09:20:17;;;;;;;15.77;4.40;;;24.00;99.90;;;;;;5064934;28;20051;-76
2022/06/11 09:23:08;;;;;;;18.92;5.97;;;24.20;99.90;;;;;;5052023;28;20785;-76
2022/06/11 09:25:43;;;;;;;21.63;11.63;;;24.40;99.90;;;;;;5075333;28;20047;-75
2022/06/11 09:28:37;;;;;;;20.55;6.07;;;24.40;99.90;;;;;;5020691;28;20039;-74
2022/06/11 09:31:13;;;;;;;16.33;4.57;;;24.20;99.90;;;;;;5035535;28;20051;-76
2022/06/11 09:34:03;;;;;;;17.20;4.25;;;24.10;99.90;;;;;;5034297;28;20044;-74
2022/06/11 09:36:37;;;;;;;15.60;5.45;;;23.80;99.90;;;;;;5058477;28;20039;-75
2022/06/11 09:39:13;;;;;;;16.10;4.00;;;24.10;99.90;;;;;;5056521;28;20052;-73
2022/06/11 09:41:53;;;;;;;15.43;4.90;;;24.10;99.90;;;;;;5059082;28;20044;-75
2022/06/11 09:44:39;;;;;;;16.40;4.50;;;24.20;99.90;;;;;;5047608;28;20197;-76
2022/06/11 09:47:10;;;;;;;16.42;4.47;;;24.00;99.90;;;;;;5065731;28;20048;-75
2022/06/11 09:50:01;;;;;;;15.73;4.80;;;23.90;99.90;;;;;;5064594;28;20048;-75
2022/06/11 09:52:38;;;;;;;;;;;24.00;99.90;;;;;;5061737;28;20131;-74
2022/06/11 09:55:34;;;;;;;15.05;4.38;;;24.50;99.90;;;;;;5049576;28;19920;-74
2022/06/11 09:58:25;;;;;;;12.52;3.75;;;24.80;98.90;;;;;;5057790;28;20065;-74
2022/06/11 10:00:58;;;;;;;13.85;5.15;;;24.60;99.90;;;;;;5041103;28;20040;-74
2022/06/11 10:03:37;;;;;;;24.23;15.90;;;24.90;98.00;;;;;;5056230;28;20043;-75
2022/06/11 10:06:03;;;;;;;18.67;8.65;;;25.40;94.80;;;;;;5025638;28;20048;-75
2022/06/11 10:08:53;;;;;;;13.32;4.90;;;25.60;94.00;;;;;;5040156;28;20059;-74
2022/06/11 10:11:25;;;;;;;13.20;3.38;;;25.50;94.80;;;;;;5072486;28;20581;-75
2022/06/11 10:13:53;;;;;;;16.67;6.25;;;25.20;93.10;;;;;;5037688;28;20500;-78
2022/06/11 10:16:33;;;;;;;13.98;4.75;;;25.50;95.60;;;;;;5044488;28;20051;-76
2022/06/11 10:19:44;;;;;;;12.65;3.72;;;25.40;86.30;;;;;;5072818;28;20117;-77
2022/06/11 10:22:32;;;;;;;10.50;4.00;;;25.40;87.50;;;;;;5074607;28;20523;-77
2022/06/11 10:25:13;;;;;;;10.68;4.30;;;25.60;82.70;;;;;;5040819;28;20044;-74
2022/06/11 10:27:46;;;;;;;;;;;25.20;68.20;;;;;;5056842;28;20048;-75
2022/06/11 10:30:47;;;;;;;13.43;3.85;;;25.70;65.50;;;;;;5055062;28;20042;-75
2022/06/11 10:33:27;;;;;;;12.32;3.75;;;26.00;70.10;;;;;;5075518;28;20044;-76
2022/06/11 10:36:02;;;;;;;10.30;3.60;;;25.90;63.70;;;;;;5029805;28;20044;-75
2022/06/11 10:38:31;;;;;;;9.02;2.63;;;25.60;60.70;;;;;;5038009;28;20050;-76
2022/06/11 10:40:59;;;;;;;11.73;3.55;;;25.50;59.90;;;;;;5067877;28;20071;-76
2022/06/11 10:44:13;;;;;;;10.95;3.08;;;25.60;58.90;;;;;;5049803;28;20101;-75
2022/06/11 10:46:39;;;;;;;15.10;5.65;;;25.90;55.10;;;;;;5046241;28;20439;-76
2022/06/11 10:49:15;;;;;;;16.27;11.27;;;26.30;60.20;;;;;;5056777;28;20051;-76
2022/06/11 10:51:45;;;;;;;14.27;6.75;;;26.20;55.90;;;;;;5076372;28;20047;-77
2022/06/11 10:54:20;;;;;;;10.52;3.60;;;25.90;53.90;;;;;;5066944;28;20970;-75
2022/06/11 10:56:57;;;;;;;12.60;3.80;;;25.80;52.50;;;;;;5084630;28;20732;-74
2022/06/11 10:59:35;;;;;;;11.98;4.75;;;25.70;51.90;;;;;;5066875;28;20625;-74
2022/06/11 11:02:20;;;;;;;11.55;3.85;;;25.60;51.10;;;;;;5045069;28;20093;-76
2022/06/11 11:05:18;;;;;;;12.52;3.22;;;25.40;50.90;;;;;;5056117;28;20063;-76
2022/06/11 11:07:52;;;;;;;12.90;3.90;;;25.20;51.30;;;;;;5043790;28;20109;-75
2022/06/11 11:10:35;;;;;;;9.55;3.00;;;25.00;53.60;;;;;;5045255;28;20032;-76
2022/06/11 11:13:06;;;;;;;12.13;3.10;;;25.10;57.90;;;;;;5058978;28;20212;-76
2022/06/11 11:15:46;;;;;;;7.60;2.42;;;25.30;55.90;;;;;;5054008;28;20079;-76
2022/06/11 11:18:23;;;;;;;9.15;3.20;;;25.70;54.10;;;;;;5041173;28;20054;-76
2022/06/11 11:20:56;;;;;;;9.85;2.95;;;25.70;53.90;;;;;;5042860;28;20074;-76
2022/06/11 11:23:49;;;;;;;10.63;2.90;;;25.80;55.10;;;;;;5073605;28;20043;-76
2022/06/11 11:26:24;;;;;;;9.68;2.78;;;25.90;55.20;;;;;;5053340;28;20138;-75
2022/06/11 11:28:54;;;;;;;12.30;3.10;;;25.90;52.70;;;;;;5039152;28;20047;-76
2022/06/11 11:31:25;;;;;;;12.20;3.75;;;25.70;53.00;;;;;;5043161;28;20606;-76
2022/06/11 11:34:10;;;;;;;11.93;3.72;;;25.80;52.60;;;;;;5029476;28;20123;-76
2022/06/11 11:36:39;;;;;;;10.38;3.03;;;25.60;54.00;;;;;;5029699;28;20102;-77
2022/06/11 11:39:21;;;;;;;11.07;2.95;;;25.80;56.30;;;;;;5076001;28;20044;-76
2022/06/11 11:41:53;;;;;;;10.13;2.78;;;25.50;52.30;;;;;;5054632;28;20042;-78
2022/06/11 11:44:23;;;;;;;11.43;2.38;;;25.40;56.00;;;;;;5062549;28;20100;-77
2022/06/11 11:46:59;;;;;;;29.38;26.00;;;25.60;58.00;;;;;;5043580;28;20076;-78
2022/06/11 11:49:29;;;;;;;15.70;5.53;;;25.70;52.80;;;;;;5060201;28;20441;-77
2022/06/11 11:52:22;;;;;;;14.18;6.10;;;25.80;53.00;;;;;;5044206;28;20044;-76
2022/06/11 11:55:26;;;;;;;14.48;4.45;;;26.00;56.20;;;;;;5062084;28;20051;-76
2022/06/11 11:58:06;;;;;;;16.98;9.10;;;25.50;52.50;;;;;;5022077;28;20462;-76
2022/06/11 12:00:58;;;;;;;11.65;3.17;;;26.40;55.80;;;;;;5057402;28;20082;-76
2022/06/11 12:03:35;;;;;;;11.23;3.33;;;26.40;52.00;;;;;;5053396;28;20045;-76
2022/06/11 12:06:03;;;;;;;12.57;3.78;;;26.60;51.90;;;;;;5043428;28;20044;-76
2022/06/11 12:08:41;;;;;;;10.88;3.80;;;26.80;52.10;;;;;;5049309;28;20047;-76
2022/06/11 12:11:07;;;;;;;14.60;8.32;;;26.60;49.70;;;;;;5037397;28;20051;-75
2022/06/11 12:13:47;;;;;;;13.60;4.85;;;26.80;50.50;;;;;;5064478;28;20047;-77
2022/06/11 12:16:26;;;;;;;10.37;3.17;;;26.80;46.90;;;;;;5060885;28;20537;-76
2022/06/11 12:19:02;;;;;;;13.40;6.13;;;26.50;48.20;;;;;;5084080;27;20493;-76
2022/06/11 12:21:33;;;;;;;13.75;6.30;;;26.90;48.80;;;;;;5050295;28;20076;-77
2022/06/11 12:24:13;;;;;;;12.15;4.47;;;26.90;47.90;;;;;;5043454;28;20797;-76
2022/06/11 12:26:47;;;;;;;10.70;3.33;;;26.80;47.60;;;;;;5071506;28;20056;-77
2022/06/11 12:29:30;;;;;;;12.02;3.35;;;26.60;47.10;;;;;;5052244;28;20454;-77
2022/06/11 12:32:12;;;;;;;10.27;3.67;;;26.40;46.90;;;;;;5039881;28;20047;-77
2022/06/11 12:34:38;;;;;;;14.68;3.75;;;26.60;47.80;;;;;;5078241;28;20044;-76
2022/06/11 12:37:36;;;;;;;10.38;3.20;;;26.40;47.10;;;;;;5046916;28;20071;-76
2022/06/11 12:40:31;;;;;;;11.95;3.60;;;26.80;47.80;;;;;;5060204;28;20147;-77
2022/06/11 12:43:22;;;;;;;13.80;3.88;;;26.50;46.90;;;;;;5056751;28;20044;-77
2022/06/11 12:46:13;;;;;;;9.25;3.67;;;26.10;49.10;;;;;;5057850;28;20044;-77
2022/06/11 12:48:45;;;;;;;;;;;26.30;49.00;;;;;;5056573;28;20051;-77
2022/06/11 12:51:32;;;;;;;12.82;3.55;;;26.30;48.20;;;;;;5068685;28;19924;-77
2022/06/11 12:54:30;;;;;;;12.45;3.83;;;26.80;48.60;;;;;;5062888;28;20044;-77
2022/06/11 12:57:22;;;;;;;14.02;4.63;;;26.90;48.40;;;;;;5057539;28;20055;-76
2022/06/11 13:00:11;;;;;;;14.40;3.10;;;26.60;49.10;;;;;;5058533;28;20040;-77
2022/06/11 13:02:40;;;;;;;11.48;3.22;;;27.00;49.40;;;;;;5058336;28;20036;-76
2022/06/11 13:05:39;;;;;;;13.48;3.47;;;27.10;49.70;;;;;;5063443;28;20503;-77
2022/06/11 13:08:24;;;;;;;12.60;3.75;;;27.10;50.30;;;;;;5056038;28;20280;-77
2022/06/11 13:11:09;;;;;;;11.43;2.55;;;26.70;48.60;;;;;;5061065;28;20631;-76
2022/06/11 13:13:53;;;;;;;11.60;3.08;;;27.30;49.00;;;;;;5047365;28;20066;-76